Terminal Aerodrome Forecast
Issued by NWS

Home | Current Version | Previous Version | Text Only | Print | Product List | Glossary On
Versions: 1 2 3 4 5 6 7 8 9 10 11 12 13 14
000
FTUS44 KLIX 011100
TAFMSY
TAF
KMSY 011134Z 0112/0212 13005KT P6SM VCSH OVC050
     FM011600 19008KT P6SM VCSH OVC035
     FM020100 26012KT 5SM SHRA OVC025
     FM020600 33019KT P6SM OVC008=

USA.gov is the U.S. government's official web portal to all federal, state and local government web resources and services.